sensor_id;sensor_type;location;lat;lon;timestamp;pressure;altitude;pressure_sealevel;temperature;humidity
57628;BME280;43451;49.060;10.616;2023-01-27T00:00:15;96910.69;;;-2.12;100.00
57628;BME280;43451;49.060;10.616;2023-01-27T00:02:42;96901.00;;;-2.07;100.00
57628;BME280;43451;49.060;10.616;2023-01-27T00:05:09;96912.00;;;-2.00;100.00
57628;BME280;43451;49.060;10.616;2023-01-27T00:07:35;96910.19;;;-2.14;100.00
57628;BME280;43451;49.060;10.616;2023-01-27T00:10:01;96907.59;;;-2.05;100.00
57628;BME280;43451;49.060;10.616;2023-01-27T00:12:26;96900.88;;;-2.02;100.00
57628;BME280;43451;49.060;10.616;2023-01-27T00:15:12;96908.97;;;-2.07;100.00
57628;BME280;43451;49.060;10.616;2023-01-27T00:17:38;96903.81;;;-2.04;100.00
57628;BME280;43451;49.060;10.616;2023-01-27T00:20:05;96900.66;;;-2.15;100.00
57628;BME280;43451;49.060;10.616;2023-01-27T00:22:31;96902.88;;;-2.08;100.00
57628;BME280;43451;49.060;10.616;2023-01-27T00:25:16;96905.72;;;-2.04;100.00
57628;BME280;43451;49.060;10.616;2023-01-27T00:27:42;96906.50;;;-2.04;100.00
57628;BME280;43451;49.060;10.616;2023-01-27T00:30:08;96900.72;;;-2.06;100.00
57628;BME280;43451;49.060;10.616;2023-01-27T00:32:34;96896.09;;;-2.14;100.00
57628;BME280;43451;49.060;10.616;2023-01-27T00:35:18;96898.16;;;-2.11;100.00
57628;BME280;43451;49.060;10.616;2023-01-27T00:37:44;96900.56;;;-2.01;100.00
57628;BME280;43451;49.060;10.616;2023-01-27T00:40:11;96907.59;;;-2.05;100.00
57628;BME280;43451;49.060;10.616;2023-01-27T00:42:37;96895.38;;;-2.06;100.00
57628;BME280;43451;49.060;10.616;2023-01-27T00:45:03;96894.13;;;-2.00;100.00
57628;BME280;43451;49.060;10.616;2023-01-27T00:47:48;96889.84;;;-2.10;100.00
57628;BME280;43451;49.060;10.616;2023-01-27T00:50:13;96895.00;;;-2.13;100.00
57628;BME280;43451;49.060;10.616;2023-01-27T00:52:39;96879.22;;;-2.10;100.00
57628;BME280;43451;49.060;10.616;2023-01-27T00:55:06;96883.28;;;-2.12;100.00
57628;BME280;43451;49.060;10.616;2023-01-27T00:57:31;96887.16;;;-2.18;100.00
57628;BME280;43451;49.060;10.616;2023-01-27T00:59:57;96894.97;;;-2.22;100.00
57628;BME280;43451;49.060;10.616;2023-01-27T01:02:22;96893.72;;;-2.24;100.00
57628;BME280;43451;49.060;10.616;2023-01-27T01:04:47;96881.84;;;-2.18;100.00
57628;BME280;43451;49.060;10.616;2023-01-27T01:07:13;96877.13;;;-2.21;100.00
57628;BME280;43451;49.060;10.616;2023-01-27T01:09:38;96903.44;;;-2.20;100.00
57628;BME280;43451;49.060;10.616;2023-01-27T01:12:04;96905.47;;;-2.17;100.00
57628;BME280;43451;49.060;10.616;2023-01-27T01:14:29;96916.06;;;-2.25;100.00
57628;BME280;43451;49.060;10.616;2023-01-27T01:16:55;96912.56;;;-2.12;100.00
57628;BME280;43451;49.060;10.616;2023-01-27T01:19:21;96905.19;;;-2.15;100.00
57628;BME280;43451;49.060;10.616;2023-01-27T01:21:46;96913.34;;;-2.12;100.00
57628;BME280;43451;49.060;10.616;2023-01-27T01:24:12;96914.84;;;-2.19;100.00
57628;BME280;43451;49.060;10.616;2023-01-27T01:26:37;96903.47;;;-2.11;100.00
57628;BME280;43451;49.060;10.616;2023-01-27T01:29:03;96907.78;;;-2.24;100.00
57628;BME280;43451;49.060;10.616;2023-01-27T01:31:31;96898.53;;;-2.26;100.00
57628;BME280;43451;49.060;10.616;2023-01-27T01:33:57;96905.03;;;-2.10;100.00
57628;BME280;43451;49.060;10.616;2023-01-27T01:36:22;96895.00;;;-2.13;100.00
57628;BME280;43451;49.060;10.616;2023-01-27T01:38:48;96892.00;;;-2.20;100.00
57628;BME280;43451;49.060;10.616;2023-01-27T01:41:16;96885.41;;;-2.23;100.00
57628;BME280;43451;49.060;10.616;2023-01-27T01:43:42;96901.19;;;-2.26;100.00
57628;BME280;43451;49.060;10.616;2023-01-27T01:46:09;96908.06;;;-2.25;100.00
57628;BME280;43451;49.060;10.616;2023-01-27T01:51:30;96910.63;;;-2.20;100.00
57628;BME280;43451;49.060;10.616;2023-01-27T01:56:52;96886.19;;;-2.22;100.00
57628;BME280;43451;49.060;10.616;2023-01-27T01:59:51;96893.53;;;-2.28;100.00
57628;BME280;43451;49.060;10.616;2023-01-27T02:02:17;96885.97;;;-2.12;100.00
57628;BME280;43451;49.060;10.616;2023-01-27T02:04:53;96887.50;;;-2.11;100.00
57628;BME280;43451;49.060;10.616;2023-01-27T02:09:55;96889.69;;;-2.13;100.00
57628;BME280;43451;49.060;10.616;2023-01-27T02:12:21;96888.91;;;-2.14;100.00
57628;BME280;43451;49.060;10.616;2023-01-27T02:14:46;96890.00;;;-2.15;100.00
57628;BME280;43451;49.060;10.616;2023-01-27T02:17:12;96894.66;;;-2.20;100.00
57628;BME280;43451;49.060;10.616;2023-01-27T02:22:44;96899.03;;;-2.24;100.00
57628;BME280;43451;49.060;10.616;2023-01-27T02:28:04;96892.44;;;-2.27;100.00
57628;BME280;43451;49.060;10.616;2023-01-27T02:30:31;96888.38;;;-2.24;100.00
57628;BME280;43451;49.060;10.616;2023-01-27T02:32:56;96886.78;;;-2.25;100.00
57628;BME280;43451;49.060;10.616;2023-01-27T02:35:46;96894.78;;;-2.25;100.00
57628;BME280;43451;49.060;10.616;2023-01-27T02:38:17;96893.56;;;-2.19;100.00
57628;BME280;43451;49.060;10.616;2023-01-27T02:40:46;96894.66;;;-2.20;100.00
57628;BME280;43451;49.060;10.616;2023-01-27T02:43:13;96889.06;;;-2.19;100.00
57628;BME280;43451;49.060;10.616;2023-01-27T02:45:38;96881.97;;;-2.23;100.00
57628;BME280;43451;49.060;10.616;2023-01-27T02:48:04;96879.31;;;-2.23;100.00
57628;BME280;43451;49.060;10.616;2023-01-27T02:50:30;96882.19;;;-2.11;100.00
57628;BME280;43451;49.060;10.616;2023-01-27T02:52:55;96877.75;;;-2.24;100.00
57628;BME280;43451;49.060;10.616;2023-01-27T02:55:21;96877.13;;;-2.21;100.00
57628;BME280;43451;49.060;10.616;2023-01-27T02:57:46;96873.38;;;-2.20;100.00
57628;BME280;43451;49.060;10.616;2023-01-27T03:00:12;96881.84;;;-2.18;100.00
57628;BME280;43451;49.060;10.616;2023-01-27T03:02:38;96874.16;;;-2.20;100.00
57628;BME280;43451;49.060;10.616;2023-01-27T03:05:03;96886.78;;;-2.25;100.00
57628;BME280;43451;49.060;10.616;2023-01-27T03:07:29;96883.19;;;-2.29;100.00
57628;BME280;43451;49.060;10.616;2023-01-27T03:09:54;96882.72;;;-2.31;100.00
57628;BME280;43451;49.060;10.616;2023-01-27T03:12:20;96879.75;;;-2.30;100.00
57628;BME280;43451;49.060;10.616;2023-01-27T03:14:50;96880.88;;;-2.22;100.00
57628;BME280;43451;49.060;10.616;2023-01-27T03:17:35;96879.00;;;-2.22;100.00
57628;BME280;43451;49.060;10.616;2023-01-27T03:20:20;96878.69;;;-2.20;100.00
57628;BME280;43451;49.060;10.616;2023-01-27T03:22:46;96886.00;;;-2.26;100.00
57628;BME280;43451;49.060;10.616;2023-01-27T03:25:12;96889.50;;;-2.17;100.00
57628;BME280;43451;49.060;10.616;2023-01-27T03:27:37;96884.28;;;-2.30;100.00
57628;BME280;43451;49.060;10.616;2023-01-27T03:30:03;96893.81;;;-2.29;100.00
57628;BME280;43451;49.060;10.616;2023-01-27T03:32:30;96885.56;;;-2.19;100.00
57628;BME280;43451;49.060;10.616;2023-01-27T03:34:56;96884.28;;;-2.30;100.00
57628;BME280;43451;49.060;10.616;2023-01-27T03:37:26;96891.75;;;-2.33;100.00
57628;BME280;43451;49.060;10.616;2023-01-27T03:40:09;96892.53;;;-2.32;100.00
57628;BME280;43451;49.060;10.616;2023-01-27T03:42:54;96898.53;;;-2.26;100.00
57628;BME280;43451;49.060;10.616;2023-01-27T03:45:38;96893.44;;;-2.14;100.00
57628;BME280;43451;49.060;10.616;2023-01-27T03:48:22;96898.88;;;-2.19;100.00
57628;BME280;43451;49.060;10.616;2023-01-27T03:50:48;96892.97;;;-2.16;100.00
57628;BME280;43451;49.060;10.616;2023-01-27T03:53:20;96894.78;;;-2.25;100.00
57628;BME280;43451;49.060;10.616;2023-01-27T03:55:46;96897.25;;;-2.29;100.00
57628;BME280;43451;49.060;10.616;2023-01-27T03:58:33;96890.38;;;-2.30;100.00
57628;BME280;43451;49.060;10.616;2023-01-27T04:03:31;96902.28;;;-2.27;100.00
57628;BME280;43451;49.060;10.616;2023-01-27T04:06:18;96888.38;;;-2.24;100.00
57628;BME280;43451;49.060;10.616;2023-01-27T04:09:03;96895.75;;;-2.21;100.00
57628;BME280;43451;49.060;10.616;2023-01-27T04:11:29;96891.72;;;-2.19;100.00
57628;BME280;43451;49.060;10.616;2023-01-27T04:14:14;96895.09;;;-2.27;100.00
57628;BME280;43451;49.060;10.616;2023-01-27T04:16:39;96896.31;;;-2.33;100.00
57628;BME280;43451;49.060;10.616;2023-01-27T04:19:06;96889.53;;;-2.39;100.00
57628;BME280;43451;49.060;10.616;2023-01-27T04:21:32;96896.63;;;-2.35;100.00
57628;BME280;43451;49.060;10.616;2023-01-27T04:23:59;96897.22;;;-2.15;100.00
57628;BME280;43451;49.060;10.616;2023-01-27T04:26:25;96899.97;;;-2.20;100.00
57628;BME280;43451;49.060;10.616;2023-01-27T04:28:50;96903.59;;;-2.16;100.00
57628;BME280;43451;49.060;10.616;2023-01-27T04:31:16;96894.66;;;-2.20;100.00
57628;BME280;43451;49.060;10.616;2023-01-27T04:33:43;96895.31;;;-2.15;100.00
57628;BME280;43451;49.060;10.616;2023-01-27T04:36:09;96902.66;;;-2.20;100.00
57628;BME280;43451;49.060;10.616;2023-01-27T04:38:35;96896.22;;;-2.19;100.00
57628;BME280;43451;49.060;10.616;2023-01-27T04:41:00;96888.03;;;-2.31;100.00
57628;BME280;43451;49.060;10.616;2023-01-27T04:43:26;96887.28;;;-2.23;100.00
57628;BME280;43451;49.060;10.616;2023-01-27T04:45:51;96895.38;;;-2.06;100.00
57628;BME280;43451;49.060;10.616;2023-01-27T04:48:17;96893.13;;;-2.13;100.00
57628;BME280;43451;49.060;10.616;2023-01-27T04:50:42;96899.72;;;-2.10;100.00
57628;BME280;43451;49.060;10.616;2023-01-27T04:53:07;96903.06;;;-2.04;100.00
57628;BME280;43451;49.060;10.616;2023-01-27T04:55:33;96895.19;;;-2.10;100.00
57628;BME280;43451;49.060;10.616;2023-01-27T04:57:58;96889.69;;;-2.13;100.00
57628;BME280;43451;49.060;10.616;2023-01-27T05:00:24;96902.03;;;-2.17;100.00
57628;BME280;43451;49.060;10.616;2023-01-27T05:02:49;96886.19;;;-2.22;100.00
57628;BME280;43451;49.060;10.616;2023-01-27T05:05:15;96889.94;;;-2.23;100.00
57628;BME280;43451;49.060;10.616;2023-01-27T05:07:40;96893.72;;;-2.24;100.00
57628;BME280;43451;49.060;10.616;2023-01-27T05:10:06;96885.97;;;-2.12;100.00
57628;BME280;43451;49.060;10.616;2023-01-27T05:12:32;96903.47;;;-2.11;100.00
57628;BME280;43451;49.060;10.616;2023-01-27T05:14:58;96897.38;;;-2.12;100.00
57628;BME280;43451;49.060;10.616;2023-01-27T05:17:23;96904.25;;;-2.11;100.00
57628;BME280;43451;49.060;10.616;2023-01-27T05:19:49;96911.47;;;-2.11;100.00
57628;BME280;43451;49.060;10.616;2023-01-27T05:22:14;96908.63;;;-2.15;100.00
57628;BME280;43451;49.060;10.616;2023-01-27T05:24:40;96912.69;;;-2.17;100.00
57628;BME280;43451;49.060;10.616;2023-01-27T05:27:05;96922.59;;;-2.09;100.00
57628;BME280;43451;49.060;10.616;2023-01-27T05:29:31;96923.50;;;-2.14;100.00
57628;BME280;43451;49.060;10.616;2023-01-27T05:31:56;96915.94;;;-2.20;100.00
57628;BME280;43451;49.060;10.616;2023-01-27T05:34:22;96918.13;;;-2.22;100.00
57628;BME280;43451;49.060;10.616;2023-01-27T05:36:48;96905.31;;;-2.20;100.00
57628;BME280;43451;49.060;10.616;2023-01-27T05:39:13;96900.81;;;-2.11;100.00
57628;BME280;43451;49.060;10.616;2023-01-27T05:41:38;96909.41;;;-2.14;100.00
57628;BME280;43451;49.060;10.616;2023-01-27T05:44:05;96902.69;;;-2.12;100.00
57628;BME280;43451;49.060;10.616;2023-01-27T05:46:31;96910.97;;;-2.13;100.00
57628;BME280;43451;49.060;10.616;2023-01-27T05:49:02;96915.34;;;-2.17;100.00
57628;BME280;43451;49.060;10.616;2023-01-27T05:51:35;96923.03;;;-2.16;100.00
57628;BME280;43451;49.060;10.616;2023-01-27T05:54:01;96937.59;;;-2.13;100.00
57628;BME280;43451;49.060;10.616;2023-01-27T05:56:27;96928.34;;;-2.16;100.00
57628;BME280;43451;49.060;10.616;2023-01-27T05:58:54;96929.75;;;-2.18;100.00
57628;BME280;43451;49.060;10.616;2023-01-27T06:01:32;96933.97;;;-2.17;100.00
57628;BME280;43451;49.060;10.616;2023-01-27T06:03:58;96932.88;;;-2.16;100.00
57628;BME280;43451;49.060;10.616;2023-01-27T06:06:25;96927.53;;;-2.16;100.00
57628;BME280;43451;49.060;10.616;2023-01-27T06:08:51;96925.38;;;-2.14;100.00
57628;BME280;43451;49.060;10.616;2023-01-27T06:11:18;96926.84;;;-2.08;100.00
57628;BME280;43451;49.060;10.616;2023-01-27T06:13:44;96930.59;;;-2.09;100.00
57628;BME280;43451;49.060;10.616;2023-01-27T06:16:14;96929.31;;;-2.12;100.00
57628;BME280;43451;49.060;10.616;2023-01-27T06:18:41;96930.88;;;-2.11;100.00
57628;BME280;43451;49.060;10.616;2023-01-27T06:21:08;96930.69;;;-2.14;100.00
57628;BME280;43451;49.060;10.616;2023-01-27T06:23:34;96931.06;;;-2.07;100.00
57628;BME280;43451;49.060;10.616;2023-01-27T06:26:02;96930.69;;;-2.14;100.00
57628;BME280;43451;49.060;10.616;2023-01-27T06:28:29;96938.25;;;-2.07;100.00
57628;BME280;43451;49.060;10.616;2023-01-27T06:30:55;96938.56;;;-2.09;100.00
57628;BME280;43451;49.060;10.616;2023-01-27T06:33:21;96939.38;;;-2.00;100.00
57628;BME280;43451;49.060;10.616;2023-01-27T06:35:46;96945.97;;;-1.97;100.00
57628;BME280;43451;49.060;10.616;2023-01-27T06:38:12;96952.00;;;-2.14;100.00
57628;BME280;43451;49.060;10.616;2023-01-27T06:40:39;96943.34;;;-2.20;100.00
57628;BME280;43451;49.060;10.616;2023-01-27T06:43:10;96948.53;;;-2.15;100.00
57628;BME280;43451;49.060;10.616;2023-01-27T06:45:36;96956.59;;;-2.06;100.00
57628;BME280;43451;49.060;10.616;2023-01-27T06:48:02;96961.59;;;-2.04;100.00
57628;BME280;43451;49.060;10.616;2023-01-27T06:50:28;96968.66;;;-2.00;100.00
57628;BME280;43451;49.060;10.616;2023-01-27T06:53:05;96966.25;;;-2.10;100.00
57628;BME280;43451;49.060;10.616;2023-01-27T06:55:31;96979.38;;;-2.14;100.00
57628;BME280;43451;49.060;10.616;2023-01-27T06:57:56;96973.03;;;-2.04;100.00
57628;BME280;43451;49.060;10.616;2023-01-27T07:00:22;96977.75;;;-2.01;100.00
57628;BME280;43451;49.060;10.616;2023-01-27T07:02:47;96989.06;;;-1.95;100.00
57628;BME280;43451;49.060;10.616;2023-01-27T07:05:13;96986.84;;;-2.02;100.00
57628;BME280;43451;49.060;10.616;2023-01-27T07:07:39;96983.69;;;-2.04;100.00
57628;BME280;43451;49.060;10.616;2023-01-27T07:10:05;96994.06;;;-1.94;100.00
57628;BME280;43451;49.060;10.616;2023-01-27T07:12:32;96990.34;;;-1.93;100.00
57628;BME280;43451;49.060;10.616;2023-01-27T07:15:05;96989.34;;;-1.97;100.00
57628;BME280;43451;49.060;10.616;2023-01-27T07:17:30;96996.72;;;-1.94;100.00
57628;BME280;43451;49.060;10.616;2023-01-27T07:19:56;96998.00;;;-1.91;100.00
57628;BME280;43451;49.060;10.616;2023-01-27T07:22:22;96998.06;;;-1.82;100.00
57628;BME280;43451;49.060;10.616;2023-01-27T07:24:47;96998.78;;;-1.91;100.00
57628;BME280;43451;49.060;10.616;2023-01-27T07:27:12;97000.69;;;-1.91;100.00
57628;BME280;43451;49.060;10.616;2023-01-27T07:29:38;97003.28;;;-1.77;100.00
57628;BME280;43451;49.060;10.616;2023-01-27T07:32:03;97006.66;;;-1.85;100.00
57628;BME280;43451;49.060;10.616;2023-01-27T07:34:29;97006.19;;;-1.88;100.00
57628;BME280;43451;49.060;10.616;2023-01-27T07:36:54;97012.41;;;-1.92;100.00
57628;BME280;43451;49.060;10.616;2023-01-27T07:39:19;97004.13;;;-1.91;100.00
57628;BME280;43451;49.060;10.616;2023-01-27T07:41:48;97011.03;;;-1.90;100.00
57628;BME280;43451;49.060;10.616;2023-01-27T07:44:13;97016.22;;;-1.84;100.00
57628;BME280;43451;49.060;10.616;2023-01-27T07:46:39;97014.66;;;-1.85;100.00
57628;BME280;43451;49.060;10.616;2023-01-27T07:49:04;97014.06;;;-1.82;100.00
57628;BME280;43451;49.060;10.616;2023-01-27T07:51:29;97016.09;;;-1.79;100.00
57628;BME280;43451;49.060;10.616;2023-01-27T07:53:55;97018.78;;;-1.79;100.00
57628;BME280;43451;49.060;10.616;2023-01-27T07:56:20;97025.06;;;-1.75;100.00
57628;BME280;43451;49.060;10.616;2023-01-27T07:58:46;97012.34;;;-1.78;100.00
57628;BME280;43451;49.060;10.616;2023-01-27T08:01:12;97018.78;;;-2.02;100.00
57628;BME280;43451;49.060;10.616;2023-01-27T08:03:38;97020.84;;;-1.99;100.00
57628;BME280;43451;49.060;10.616;2023-01-27T08:06:05;97017.50;;;-2.04;100.00
57628;BME280;43451;49.060;10.616;2023-01-27T08:08:31;97023.25;;;-1.89;100.00
57628;BME280;43451;49.060;10.616;2023-01-27T08:11:03;97019.72;;;-1.98;100.00
57628;BME280;43451;49.060;10.616;2023-01-27T08:13:30;97009.69;;;-2.01;100.00
57628;BME280;43451;49.060;10.616;2023-01-27T08:15:59;97011.63;;;-1.93;100.00
57628;BME280;43451;49.060;10.616;2023-01-27T08:18:27;97008.66;;;-1.91;100.00
57628;BME280;43451;49.060;10.616;2023-01-27T08:20:54;97017.31;;;-1.85;100.00
57628;BME280;43451;49.060;10.616;2023-01-27T08:23:23;97010.91;;;-1.84;100.00
57628;BME280;43451;49.060;10.616;2023-01-27T08:25:52;97021.69;;;-1.90;100.00
57628;BME280;43451;49.060;10.616;2023-01-27T08:28:19;97021.09;;;-1.87;100.00
57628;BME280;43451;49.060;10.616;2023-01-27T08:30:46;97022.22;;;-1.79;100.00
57628;BME280;43451;49.060;10.616;2023-01-27T08:33:11;97024.38;;;-1.81;100.00
57628;BME280;43451;49.060;10.616;2023-01-27T08:35:37;97017.44;;;-1.91;100.00
57628;BME280;43451;49.060;10.616;2023-01-27T08:38:08;97027.78;;;-1.89;100.00
57628;BME280;43451;49.060;10.616;2023-01-27T08:40:34;97029.19;;;-1.92;100.00
57628;BME280;43451;49.060;10.616;2023-01-27T08:42:59;97032.34;;;-1.90;100.00
57628;BME280;43451;49.060;10.616;2023-01-27T08:45:26;97038.63;;;-1.85;100.00
57628;BME280;43451;49.060;10.616;2023-01-27T08:47:52;97039.03;;;-1.92;100.00
57628;BME280;43451;49.060;10.616;2023-01-27T08:50:18;97032.75;;;-1.96;100.00
57628;BME280;43451;49.060;10.616;2023-01-27T08:52:43;97029.97;;;-1.91;100.00
57628;BME280;43451;49.060;10.616;2023-01-27T08:55:09;97026.22;;;-1.90;100.00
57628;BME280;43451;49.060;10.616;2023-01-27T08:57:35;97017.00;;;-1.84;100.00
57628;BME280;43451;49.060;10.616;2023-01-27T09:00:00;97022.16;;;-1.88;100.00
57628;BME280;43451;49.060;10.616;2023-01-27T09:02:26;97032.50;;;-1.86;100.00
57628;BME280;43451;49.060;10.616;2023-01-27T09:04:51;97020.31;;;-1.87;100.00
57628;BME280;43451;49.060;10.616;2023-01-27T09:07:17;97023.66;;;-1.73;100.00
57628;BME280;43451;49.060;10.616;2023-01-27T09:09:47;97026.69;;;-1.66;100.00
57628;BME280;43451;49.060;10.616;2023-01-27T09:12:12;97023.38;;;-1.71;100.00
57628;BME280;43451;49.060;10.616;2023-01-27T09:14:38;97023.97;;;-1.74;100.00
57628;BME280;43451;49.060;10.616;2023-01-27T09:17:04;97034.38;;;-1.64;100.00
57628;BME280;43451;49.060;10.616;2023-01-27T09:19:30;97026.16;;;-1.76;100.00
57628;BME280;43451;49.060;10.616;2023-01-27T09:21:55;97024.28;;;-1.76;100.00
57628;BME280;43451;49.060;10.616;2023-01-27T09:24:21;97037.94;;;-1.69;100.00
57628;BME280;43451;49.060;10.616;2023-01-27T09:26:47;97038.44;;;-1.67;100.00
57628;BME280;43451;49.060;10.616;2023-01-27T09:29:12;97044.69;;;-1.71;100.00
57628;BME280;43451;49.060;10.616;2023-01-27T09:31:38;97039.34;;;-1.71;100.00
57628;BME280;43451;49.060;10.616;2023-01-27T09:34:03;97058.63;;;-1.66;100.00
57628;BME280;43451;49.060;10.616;2023-01-27T09:36:29;97046.00;;;-1.60;100.00
57628;BME280;43451;49.060;10.616;2023-01-27T09:39:00;97061.97;;;-1.60;100.00
57628;BME280;43451;49.060;10.616;2023-01-27T09:42:20;97065.13;;;-1.58;100.00
57628;BME280;43451;49.060;10.616;2023-01-27T09:53:24;97056.56;;;-1.46;100.00
57628;BME280;43451;49.060;10.616;2023-01-27T10:04:19;97068.94;;;-1.19;100.00
57628;BME280;43451;49.060;10.616;2023-01-27T10:07:06;97072.09;;;-1.17;100.00
57628;BME280;43451;49.060;10.616;2023-01-27T10:20:45;97071.78;;;-1.15;100.00
57628;BME280;43451;49.060;10.616;2023-01-27T10:23:20;97072.28;;;-1.05;100.00
57628;BME280;43451;49.060;10.616;2023-01-27T10:28:27;97074.16;;;-1.14;100.00
57628;BME280;43451;49.060;10.616;2023-01-27T10:36:18;97080.03;;;-0.95;100.00
57628;BME280;43451;49.060;10.616;2023-01-27T10:49:25;97098.09;;;-0.91;100.00
57628;BME280;43451;49.060;10.616;2023-01-27T10:51:58;97087.06;;;-0.99;100.00
57628;BME280;43451;49.060;10.616;2023-01-27T10:54:39;97079.06;;;-0.99;100.00
57628;BME280;43451;49.060;10.616;2023-01-27T10:57:13;97082.25;;;-0.88;100.00
57628;BME280;43451;49.060;10.616;2023-01-27T10:59:46;97083.22;;;-0.84;100.00
57628;BME280;43451;49.060;10.616;2023-01-27T11:02:28;97076.31;;;-0.85;100.00
57628;BME280;43451;49.060;10.616;2023-01-27T11:05:01;97074.09;;;-0.91;100.00
57628;BME280;43451;49.060;10.616;2023-01-27T11:07:32;97071.63;;;-0.79;100.00
57628;BME280;43451;49.060;10.616;2023-01-27T11:10:14;97072.09;;;-0.77;100.00
57628;BME280;43451;49.060;10.616;2023-01-27T11:12:46;97065.84;;;-0.64;100.00
57628;BME280;43451;49.060;10.616;2023-01-27T11:15:33;97062.41;;;-0.64;100.00
57628;BME280;43451;49.060;10.616;2023-01-27T11:18:11;97063.34;;;-0.60;100.00
57628;BME280;43451;49.060;10.616;2023-01-27T11:20:50;97047.69;;;-0.53;100.00
57628;BME280;43451;49.060;10.616;2023-01-27T11:23:39;97053.34;;;-0.46;100.00
57628;BME280;43451;49.060;10.616;2023-01-27T11:26:17;97051.78;;;-0.47;99.81
57628;BME280;43451;49.060;10.616;2023-01-27T11:29:17;97066.72;;;-0.20;100.00
57628;BME280;43451;49.060;10.616;2023-01-27T11:31:53;97056.56;;;-0.09;100.00
57628;BME280;43451;49.060;10.616;2023-01-27T11:37:37;97051.50;;;-0.28;98.96
57628;BME280;43451;49.060;10.616;2023-01-27T11:40:13;97053.84;;;-0.35;100.00
57628;BME280;43451;49.060;10.616;2023-01-27T11:42:40;97053.03;;;-0.44;100.00
57628;BME280;43451;49.060;10.616;2023-01-27T11:45:12;97061.22;;;-0.41;100.00
57628;BME280;43451;49.060;10.616;2023-01-27T11:47:40;97051.34;;;-0.32;100.00
57628;BME280;43451;49.060;10.616;2023-01-27T11:50:11;97041.09;;;-0.38;100.00
57628;BME280;43451;49.060;10.616;2023-01-27T11:52:37;97036.72;;;-0.43;100.00
57628;BME280;43451;49.060;10.616;2023-01-27T11:55:09;97038.44;;;-0.38;100.00
57628;BME280;43451;49.060;10.616;2023-01-27T11:57:45;97041.91;;;-0.47;100.00
57628;BME280;43451;49.060;10.616;2023-01-27T12:00:24;97036.25;;;-0.45;100.00
57628;BME280;43451;49.060;10.616;2023-01-27T12:05:26;97040.63;;;-0.49;100.00
57628;BME280;43451;49.060;10.616;2023-01-27T12:08:00;97045.50;;;-0.42;100.00
57628;BME280;43451;49.060;10.616;2023-01-27T12:10:30;97036.25;;;-0.45;99.91
57628;BME280;43451;49.060;10.616;2023-01-27T12:13:00;97037.38;;;-0.37;99.63
57628;BME280;43451;49.060;10.616;2023-01-27T12:15:32;97019.63;;;-0.33;98.99
57628;BME280;43451;49.060;10.616;2023-01-27T12:18:02;97029.81;;;-0.35;99.10
57628;BME280;43451;49.060;10.616;2023-01-27T12:20:33;97020.09;;;-0.31;98.52
57628;BME280;43451;49.060;10.616;2023-01-27T12:23:13;97016.63;;;-0.23;98.50
57628;BME280;43451;49.060;10.616;2023-01-27T12:25:45;97008.31;;;-0.21;98.61
57628;BME280;43451;49.060;10.616;2023-01-27T12:31:05;96997.66;;;-0.21;100.00
57628;BME280;43451;49.060;10.616;2023-01-27T12:33:35;97000.31;;;-0.21;99.32
57628;BME280;43451;49.060;10.616;2023-01-27T12:38:35;96990.88;;;-0.10;98.77
57628;BME280;43451;49.060;10.616;2023-01-27T12:41:04;97006.28;;;-0.16;99.27
57628;BME280;43451;49.060;10.616;2023-01-27T12:43:31;96993.72;;;-0.24;100.00
57628;BME280;43451;49.060;10.616;2023-01-27T12:48:47;96990.69;;;-0.57;100.00
57628;BME280;43451;49.060;10.616;2023-01-27T12:51:43;96990.88;;;-0.62;100.00
57628;BME280;43451;49.060;10.616;2023-01-27T12:54:26;96999.31;;;-0.60;100.00
57628;BME280;43451;49.060;10.616;2023-01-27T12:56:53;96992.13;;;-0.60;100.00
57628;BME280;43451;49.060;10.616;2023-01-27T12:59:22;96999.97;;;-0.55;100.00
57628;BME280;43451;49.060;10.616;2023-01-27T13:02:18;97005.59;;;-0.65;100.00
57628;BME280;43451;49.060;10.616;2023-01-27T13:04:58;97007.16;;;-0.64;100.00
57628;BME280;43451;49.060;10.616;2023-01-27T13:07:28;96998.53;;;-0.61;100.00
57628;BME280;43451;49.060;10.616;2023-01-27T13:09:54;97009.22;;;-0.69;100.00
57628;BME280;43451;49.060;10.616;2023-01-27T13:12:24;97005.91;;;-0.75;100.00
57628;BME280;43451;49.060;10.616;2023-01-27T13:15:16;97014.03;;;-0.80;100.00
57628;BME280;43451;49.060;10.616;2023-01-27T13:17:46;97011.38;;;-0.80;100.00
57628;BME280;43451;49.060;10.616;2023-01-27T13:20:29;97015.47;;;-0.74;100.00
57628;BME280;43451;49.060;10.616;2023-01-27T13:23:02;97014.03;;;-0.80;100.00
57628;BME280;43451;49.060;10.616;2023-01-27T13:25:36;97018.00;;;-0.69;100.00
57628;BME280;43451;49.060;10.616;2023-01-27T13:28:04;97016.25;;;-0.82;100.00
57628;BME280;43451;49.060;10.616;2023-01-27T13:30:42;97023.63;;;-0.79;100.00
57628;BME280;43451;49.060;10.616;2023-01-27T13:33:30;97023.50;;;-0.65;100.00
57628;BME280;43451;49.060;10.616;2023-01-27T13:36:03;97020.66;;;-0.69;100.00
57628;BME280;43451;49.060;10.616;2023-01-27T13:41:52;97025.31;;;-0.83;100.00
57628;BME280;43451;49.060;10.616;2023-01-27T13:44:30;97027.88;;;-0.78;100.00
57628;BME280;43451;49.060;10.616;2023-01-27T13:47:04;97038.84;;;-0.71;100.00
57628;BME280;43451;49.060;10.616;2023-01-27T13:49:38;97035.69;;;-0.82;100.00
57628;BME280;43451;49.060;10.616;2023-01-27T13:52:05;97046.69;;;-0.75;100.00
57628;BME280;43451;49.060;10.616;2023-01-27T13:54:32;97034.47;;;-0.76;100.00
57628;BME280;43451;49.060;10.616;2023-01-27T13:59:39;97042.47;;;-0.76;100.00
57628;BME280;43451;49.060;10.616;2023-01-27T14:05:42;97039.47;;;-0.74;100.00
57628;BME280;43451;49.060;10.616;2023-01-27T14:08:19;97041.53;;;-0.71;100.00
57628;BME280;43451;49.060;10.616;2023-01-27T14:14:28;97050.63;;;-0.72;100.00
57628;BME280;43451;49.060;10.616;2023-01-27T14:23:40;97049.28;;;-0.92;100.00
57628;BME280;43451;49.060;10.616;2023-01-27T14:26:10;97040.72;;;-0.80;100.00
57628;BME280;43451;49.060;10.616;2023-01-27T14:31:19;97046.50;;;-0.87;100.00